sensor_id;sensor_type;location;lat;lon;timestamp;P1;durP1;ratioP1;P2;durP2;ratioP2
739;SDS011;354;42.694;23.336;2022-09-09T00:04:09;19.00;;;17.50;;
739;SDS011;354;42.694;23.336;2022-09-09T00:09:21;17.80;;;16.20;;
739;SDS011;354;42.694;23.336;2022-09-09T00:12:05;18.07;;;16.37;;
739;SDS011;354;42.694;23.336;2022-09-09T00:14:48;18.83;;;17.27;;
739;SDS011;354;42.694;23.336;2022-09-09T00:20:11;19.50;;;18.00;;
739;SDS011;354;42.694;23.336;2022-09-09T00:22:43;18.40;;;16.90;;
739;SDS011;354;42.694;23.336;2022-09-09T00:25:20;19.00;;;17.30;;
739;SDS011;354;42.694;23.336;2022-09-09T00:27:52;21.00;;;19.30;;
739;SDS011;354;42.694;23.336;2022-09-09T00:30:20;21.40;;;19.60;;
739;SDS011;354;42.694;23.336;2022-09-09T00:32:49;19.20;;;17.80;;
739;SDS011;354;42.694;23.336;2022-09-09T00:37:49;19.73;;;17.90;;
739;SDS011;354;42.694;23.336;2022-09-09T00:40:22;20.87;;;19.07;;
739;SDS011;354;42.694;23.336;2022-09-09T00:42:47;20.30;;;18.77;;
739;SDS011;354;42.694;23.336;2022-09-09T00:47:53;20.40;;;18.70;;
739;SDS011;354;42.694;23.336;2022-09-09T00:50:26;21.07;;;19.37;;
739;SDS011;354;42.694;23.336;2022-09-09T00:53:19;20.50;;;18.60;;
739;SDS011;354;42.694;23.336;2022-09-09T00:58:32;21.23;;;19.23;;
739;SDS011;354;42.694;23.336;2022-09-09T01:01:04;21.73;;;19.73;;
739;SDS011;354;42.694;23.336;2022-09-09T01:03:37;20.50;;;18.40;;
739;SDS011;354;42.694;23.336;2022-09-09T01:06:27;20.90;;;19.20;;
739;SDS011;354;42.694;23.336;2022-09-09T01:09:13;21.97;;;19.83;;
739;SDS011;354;42.694;23.336;2022-09-09T01:11:48;21.50;;;19.30;;
739;SDS011;354;42.694;23.336;2022-09-09T01:14:24;22.83;;;20.53;;
739;SDS011;354;42.694;23.336;2022-09-09T01:16:56;21.47;;;19.57;;
739;SDS011;354;42.694;23.336;2022-09-09T01:19:45;21.97;;;20.00;;
739;SDS011;354;42.694;23.336;2022-09-09T01:28:07;22.30;;;20.40;;
739;SDS011;354;42.694;23.336;2022-09-09T01:30:35;21.93;;;19.73;;
739;SDS011;354;42.694;23.336;2022-09-09T01:33:03;21.67;;;19.87;;
739;SDS011;354;42.694;23.336;2022-09-09T01:38:09;22.30;;;20.30;;
739;SDS011;354;42.694;23.336;2022-09-09T01:40:35;23.87;;;21.63;;
739;SDS011;354;42.694;23.336;2022-09-09T01:43:01;23.30;;;20.93;;
739;SDS011;354;42.694;23.336;2022-09-09T01:45:27;21.60;;;19.80;;
739;SDS011;354;42.694;23.336;2022-09-09T01:47:53;23.50;;;21.37;;
739;SDS011;354;42.694;23.336;2022-09-09T01:50:19;22.33;;;20.23;;
739;SDS011;354;42.694;23.336;2022-09-09T01:52:46;21.80;;;19.90;;
739;SDS011;354;42.694;23.336;2022-09-09T01:55:15;20.97;;;19.17;;
739;SDS011;354;42.694;23.336;2022-09-09T02:00:27;22.57;;;20.63;;
739;SDS011;354;42.694;23.336;2022-09-09T02:11:06;20.83;;;18.93;;
739;SDS011;354;42.694;23.336;2022-09-09T02:13:39;20.43;;;18.73;;
739;SDS011;354;42.694;23.336;2022-09-09T02:16:12;21.30;;;19.50;;
739;SDS011;354;42.694;23.336;2022-09-09T02:18:40;21.00;;;19.30;;
739;SDS011;354;42.694;23.336;2022-09-09T02:21:09;21.17;;;19.47;;
739;SDS011;354;42.694;23.336;2022-09-09T02:23:37;21.17;;;19.07;;
739;SDS011;354;42.694;23.336;2022-09-09T02:26:06;22.07;;;19.73;;
739;SDS011;354;42.694;23.336;2022-09-09T02:28:35;21.57;;;19.53;;
739;SDS011;354;42.694;23.336;2022-09-09T02:31:03;22.23;;;20.43;;
739;SDS011;354;42.694;23.336;2022-09-09T02:33:31;21.93;;;19.83;;
739;SDS011;354;42.694;23.336;2022-09-09T02:36:02;22.47;;;20.47;;
739;SDS011;354;42.694;23.336;2022-09-09T02:38:32;23.63;;;21.73;;
739;SDS011;354;42.694;23.336;2022-09-09T02:41:02;21.80;;;19.90;;
739;SDS011;354;42.694;23.336;2022-09-09T02:43:32;22.27;;;20.37;;
739;SDS011;354;42.694;23.336;2022-09-09T02:48:30;23.73;;;21.70;;
739;SDS011;354;42.694;23.336;2022-09-09T02:51:16;23.07;;;20.83;;
739;SDS011;354;42.694;23.336;2022-09-09T02:54:09;23.17;;;21.23;;
739;SDS011;354;42.694;23.336;2022-09-09T02:56:43;23.43;;;21.33;;
739;SDS011;354;42.694;23.336;2022-09-09T02:59:15;21.97;;;20.17;;
739;SDS011;354;42.694;23.336;2022-09-09T03:01:41;22.07;;;20.20;;
739;SDS011;354;42.694;23.336;2022-09-09T03:04:06;22.83;;;20.90;;
739;SDS011;354;42.694;23.336;2022-09-09T03:06:32;22.50;;;20.70;;
739;SDS011;354;42.694;23.336;2022-09-09T03:08:58;23.23;;;21.43;;
739;SDS011;354;42.694;23.336;2022-09-09T03:11:26;24.57;;;22.27;;
739;SDS011;354;42.694;23.336;2022-09-09T03:13:52;24.80;;;22.63;;
739;SDS011;354;42.694;23.336;2022-09-09T03:16:19;24.07;;;21.60;;
739;SDS011;354;42.694;23.336;2022-09-09T03:18:46;23.20;;;21.10;;
739;SDS011;354;42.694;23.336;2022-09-09T03:21:11;23.93;;;21.83;;
739;SDS011;354;42.694;23.336;2022-09-09T03:23:37;25.40;;;23.20;;
739;SDS011;354;42.694;23.336;2022-09-09T03:26:02;25.53;;;23.27;;
739;SDS011;354;42.694;23.336;2022-09-09T03:28:28;25.47;;;23.17;;
739;SDS011;354;42.694;23.336;2022-09-09T03:31:05;24.20;;;22.30;;
739;SDS011;354;42.694;23.336;2022-09-09T03:33:31;25.93;;;23.13;;
739;SDS011;354;42.694;23.336;2022-09-09T03:35:56;26.00;;;23.60;;
739;SDS011;354;42.694;23.336;2022-09-09T03:38:25;24.40;;;22.30;;
739;SDS011;354;42.694;23.336;2022-09-09T03:40:52;25.50;;;23.30;;
739;SDS011;354;42.694;23.336;2022-09-09T03:43:22;25.60;;;23.03;;
739;SDS011;354;42.694;23.336;2022-09-09T03:45:49;25.23;;;22.80;;
739;SDS011;354;42.694;23.336;2022-09-09T03:48:16;25.87;;;23.47;;
739;SDS011;354;42.694;23.336;2022-09-09T03:50:45;23.67;;;21.67;;
739;SDS011;354;42.694;23.336;2022-09-09T03:53:15;26.63;;;24.10;;
739;SDS011;354;42.694;23.336;2022-09-09T03:55:44;25.73;;;23.23;;
739;SDS011;354;42.694;23.336;2022-09-09T03:58:11;27.17;;;24.73;;
739;SDS011;354;42.694;23.336;2022-09-09T04:00:38;26.87;;;24.57;;
739;SDS011;354;42.694;23.336;2022-09-09T04:03:07;27.77;;;25.37;;
739;SDS011;354;42.694;23.336;2022-09-09T04:05:36;27.40;;;24.80;;
739;SDS011;354;42.694;23.336;2022-09-09T04:08:07;28.90;;;25.97;;
739;SDS011;354;42.694;23.336;2022-09-09T04:10:33;27.07;;;24.20;;
739;SDS011;354;42.694;23.336;2022-09-09T04:12:58;27.43;;;25.23;;
739;SDS011;354;42.694;23.336;2022-09-09T04:15:24;29.87;;;25.93;;
739;SDS011;354;42.694;23.336;2022-09-09T04:17:50;26.90;;;24.20;;
739;SDS011;354;42.694;23.336;2022-09-09T04:20:16;27.00;;;24.20;;
739;SDS011;354;42.694;23.336;2022-09-09T04:22:41;26.33;;;23.67;;
739;SDS011;354;42.694;23.336;2022-09-09T04:25:07;27.37;;;24.57;;
739;SDS011;354;42.694;23.336;2022-09-09T04:27:32;27.30;;;24.80;;
739;SDS011;354;42.694;23.336;2022-09-09T04:29:58;27.00;;;24.50;;
739;SDS011;354;42.694;23.336;2022-09-09T04:32:23;27.23;;;24.83;;
739;SDS011;354;42.694;23.336;2022-09-09T04:34:52;26.17;;;23.87;;
739;SDS011;354;42.694;23.336;2022-09-09T04:37:17;28.77;;;26.17;;
739;SDS011;354;42.694;23.336;2022-09-09T04:39:43;26.87;;;24.57;;
739;SDS011;354;42.694;23.336;2022-09-09T04:42:08;25.93;;;23.27;;
739;SDS011;354;42.694;23.336;2022-09-09T04:44:33;30.47;;;26.07;;
739;SDS011;354;42.694;23.336;2022-09-09T04:46:59;29.47;;;26.83;;
739;SDS011;354;42.694;23.336;2022-09-09T04:49:24;29.43;;;26.83;;
739;SDS011;354;42.694;23.336;2022-09-09T04:51:51;29.37;;;26.70;;
739;SDS011;354;42.694;23.336;2022-09-09T04:54:16;26.20;;;23.93;;
739;SDS011;354;42.694;23.336;2022-09-09T04:56:42;27.93;;;25.17;;
739;SDS011;354;42.694;23.336;2022-09-09T04:59:08;27.23;;;24.70;;
739;SDS011;354;42.694;23.336;2022-09-09T05:01:34;28.40;;;25.37;;
739;SDS011;354;42.694;23.336;2022-09-09T05:04:01;26.27;;;23.77;;
739;SDS011;354;42.694;23.336;2022-09-09T05:06:27;25.50;;;23.07;;
739;SDS011;354;42.694;23.336;2022-09-09T05:08:54;24.90;;;22.47;;
739;SDS011;354;42.694;23.336;2022-09-09T05:11:21;25.30;;;22.80;;
739;SDS011;354;42.694;23.336;2022-09-09T05:13:49;23.40;;;21.20;;
739;SDS011;354;42.694;23.336;2022-09-09T05:16:15;22.80;;;20.63;;
739;SDS011;354;42.694;23.336;2022-09-09T05:18:42;20.10;;;18.60;;
739;SDS011;354;42.694;23.336;2022-09-09T05:21:08;21.07;;;19.07;;
739;SDS011;354;42.694;23.336;2022-09-09T05:23:34;26.90;;;21.70;;
739;SDS011;354;42.694;23.336;2022-09-09T05:26:00;21.23;;;19.40;;
739;SDS011;354;42.694;23.336;2022-09-09T05:28:26;21.58;;;19.60;;
739;SDS011;354;42.694;23.336;2022-09-09T05:31:05;21.98;;;19.67;;
739;SDS011;354;42.694;23.336;2022-09-09T05:33:39;19.43;;;17.43;;
739;SDS011;354;42.694;23.336;2022-09-09T05:36:07;19.30;;;17.48;;
739;SDS011;354;42.694;23.336;2022-09-09T05:38:35;20.88;;;19.08;;
739;SDS011;354;42.694;23.336;2022-09-09T05:41:02;30.25;;;18.98;;
739;SDS011;354;42.694;23.336;2022-09-09T05:43:28;18.58;;;16.98;;
739;SDS011;354;42.694;23.336;2022-09-09T05:48:33;19.23;;;17.30;;
739;SDS011;354;42.694;23.336;2022-09-09T05:51:04;20.08;;;18.27;;
739;SDS011;354;42.694;23.336;2022-09-09T05:53:34;19.00;;;17.27;;
739;SDS011;354;42.694;23.336;2022-09-09T05:56:07;17.92;;;16.10;;
739;SDS011;354;42.694;23.336;2022-09-09T05:58:39;18.15;;;16.50;;
739;SDS011;354;42.694;23.336;2022-09-09T06:03:32;18.23;;;16.33;;
739;SDS011;354;42.694;23.336;2022-09-09T06:06:00;16.42;;;14.88;;
739;SDS011;354;42.694;23.336;2022-09-09T06:08:27;14.15;;;12.73;;
739;SDS011;354;42.694;23.336;2022-09-09T06:10:52;36.70;;;32.88;;
739;SDS011;354;42.694;23.336;2022-09-09T06:13:18;14.68;;;13.43;;
739;SDS011;354;42.694;23.336;2022-09-09T06:15:50;13.10;;;12.00;;
739;SDS011;354;42.694;23.336;2022-09-09T06:18:17;14.07;;;12.90;;
739;SDS011;354;42.694;23.336;2022-09-09T06:20:52;14.85;;;13.40;;
739;SDS011;354;42.694;23.336;2022-09-09T06:23:19;13.27;;;12.05;;
739;SDS011;354;42.694;23.336;2022-09-09T06:25:45;14.43;;;13.18;;
739;SDS011;354;42.694;23.336;2022-09-09T06:28:11;14.18;;;12.55;;
739;SDS011;354;42.694;23.336;2022-09-09T06:30:36;12.55;;;11.55;;
739;SDS011;354;42.694;23.336;2022-09-09T06:33:01;13.25;;;12.13;;
739;SDS011;354;42.694;23.336;2022-09-09T06:35:27;13.75;;;12.45;;
739;SDS011;354;42.694;23.336;2022-09-09T06:37:53;17.85;;;16.05;;
739;SDS011;354;42.694;23.336;2022-09-09T06:40:19;13.20;;;12.13;;
739;SDS011;354;42.694;23.336;2022-09-09T06:42:44;20.58;;;18.38;;
739;SDS011;354;42.694;23.336;2022-09-09T06:45:09;13.15;;;11.95;;
739;SDS011;354;42.694;23.336;2022-09-09T06:47:35;13.18;;;12.10;;
739;SDS011;354;42.694;23.336;2022-09-09T06:50:01;11.75;;;10.85;;
739;SDS011;354;42.694;23.336;2022-09-09T06:52:26;12.85;;;11.75;;
739;SDS011;354;42.694;23.336;2022-09-09T06:54:53;13.02;;;11.73;;
739;SDS011;354;42.694;23.336;2022-09-09T06:57:18;13.98;;;12.80;;
739;SDS011;354;42.694;23.336;2022-09-09T06:59:44;12.88;;;11.57;;
739;SDS011;354;42.694;23.336;2022-09-09T07:02:09;11.95;;;10.82;;
739;SDS011;354;42.694;23.336;2022-09-09T07:04:35;12.20;;;11.10;;
739;SDS011;354;42.694;23.336;2022-09-09T07:07:02;13.10;;;12.10;;
739;SDS011;354;42.694;23.336;2022-09-09T07:09:27;15.10;;;13.60;;
739;SDS011;354;42.694;23.336;2022-09-09T07:11:54;12.27;;;11.07;;
739;SDS011;354;42.694;23.336;2022-09-09T07:14:20;13.13;;;11.75;;
739;SDS011;354;42.694;23.336;2022-09-09T07:16:45;12.95;;;11.85;;
739;SDS011;354;42.694;23.336;2022-09-09T07:19:11;12.45;;;10.82;;
739;SDS011;354;42.694;23.336;2022-09-09T07:21:39;32.20;;;29.05;;
739;SDS011;354;42.694;23.336;2022-09-09T07:24:07;11.45;;;10.50;;
739;SDS011;354;42.694;23.336;2022-09-09T07:26:35;11.73;;;10.63;;
739;SDS011;354;42.694;23.336;2022-09-09T07:29:01;11.82;;;10.85;;
739;SDS011;354;42.694;23.336;2022-09-09T07:31:27;12.48;;;11.27;;
739;SDS011;354;42.694;23.336;2022-09-09T07:33:57;11.52;;;10.52;;
739;SDS011;354;42.694;23.336;2022-09-09T07:36:25;10.68;;;9.77;;
739;SDS011;354;42.694;23.336;2022-09-09T07:39:05;10.98;;;10.13;;
739;SDS011;354;42.694;23.336;2022-09-09T07:41:34;11.98;;;10.75;;
739;SDS011;354;42.694;23.336;2022-09-09T07:44:08;11.45;;;10.38;;
739;SDS011;354;42.694;23.336;2022-09-09T07:46:38;12.77;;;11.60;;
739;SDS011;354;42.694;23.336;2022-09-09T07:49:07;11.52;;;10.55;;
739;SDS011;354;42.694;23.336;2022-09-09T07:51:37;10.90;;;10.00;;
739;SDS011;354;42.694;23.336;2022-09-09T07:54:05;15.05;;;13.60;;
739;SDS011;354;42.694;23.336;2022-09-09T07:56:34;11.98;;;11.07;;
739;SDS011;354;42.694;23.336;2022-09-09T07:59:00;12.05;;;11.05;;
739;SDS011;354;42.694;23.336;2022-09-09T08:01:30;12.75;;;11.55;;
739;SDS011;354;42.694;23.336;2022-09-09T08:03:57;13.68;;;12.45;;
739;SDS011;354;42.694;23.336;2022-09-09T08:06:28;12.10;;;10.20;;
739;SDS011;354;42.694;23.336;2022-09-09T08:08:55;10.68;;;9.73;;
739;SDS011;354;42.694;23.336;2022-09-09T08:11:22;10.45;;;9.68;;
739;SDS011;354;42.694;23.336;2022-09-09T08:13:49;11.77;;;10.88;;
739;SDS011;354;42.694;23.336;2022-09-09T08:16:17;10.77;;;9.80;;
739;SDS011;354;42.694;23.336;2022-09-09T08:18:46;10.82;;;9.75;;
739;SDS011;354;42.694;23.336;2022-09-09T08:21:13;9.68;;;8.98;;
739;SDS011;354;42.694;23.336;2022-09-09T08:23:42;11.23;;;10.45;;
739;SDS011;354;42.694;23.336;2022-09-09T08:26:12;11.52;;;10.73;;
739;SDS011;354;42.694;23.336;2022-09-09T08:28:39;11.05;;;10.10;;
739;SDS011;354;42.694;23.336;2022-09-09T08:31:16;11.55;;;10.50;;
739;SDS011;354;42.694;23.336;2022-09-09T08:33:43;11.30;;;10.20;;
739;SDS011;354;42.694;23.336;2022-09-09T08:36:12;11.18;;;10.10;;
739;SDS011;354;42.694;23.336;2022-09-09T08:38:40;12.10;;;11.00;;
739;SDS011;354;42.694;23.336;2022-09-09T08:41:30;10.77;;;9.77;;
739;SDS011;354;42.694;23.336;2022-09-09T08:47:06;12.63;;;11.57;;
739;SDS011;354;42.694;23.336;2022-09-09T08:52:02;10.73;;;9.95;;
739;SDS011;354;42.694;23.336;2022-09-09T08:54:33;13.65;;;11.35;;
739;SDS011;354;42.694;23.336;2022-09-09T08:56:59;10.82;;;9.88;;
739;SDS011;354;42.694;23.336;2022-09-09T08:59:25;12.82;;;11.68;;
739;SDS011;354;42.694;23.336;2022-09-09T09:02:09;12.50;;;10.77;;
739;SDS011;354;42.694;23.336;2022-09-09T09:04:51;11.73;;;10.73;;
739;SDS011;354;42.694;23.336;2022-09-09T09:13:53;11.75;;;10.50;;
739;SDS011;354;42.694;23.336;2022-09-09T09:16:17;13.85;;;9.98;;
739;SDS011;354;42.694;23.336;2022-09-09T09:18:47;10.18;;;9.38;;
739;SDS011;354;42.694;23.336;2022-09-09T09:21:15;11.65;;;10.60;;
739;SDS011;354;42.694;23.336;2022-09-09T09:23:48;10.90;;;10.00;;
739;SDS011;354;42.694;23.336;2022-09-09T09:26:21;12.20;;;11.10;;
739;SDS011;354;42.694;23.336;2022-09-09T09:28:51;11.18;;;10.15;;
739;SDS011;354;42.694;23.336;2022-09-09T09:31:21;10.95;;;10.05;;
739;SDS011;354;42.694;23.336;2022-09-09T09:33:52;11.63;;;10.60;;
739;SDS011;354;42.694;23.336;2022-09-09T09:36:19;12.15;;;10.98;;
739;SDS011;354;42.694;23.336;2022-09-09T09:38:58;11.25;;;10.25;;
739;SDS011;354;42.694;23.336;2022-09-09T09:41:29;12.82;;;11.77;;
739;SDS011;354;42.694;23.336;2022-09-09T09:44:00;11.30;;;10.40;;
739;SDS011;354;42.694;23.336;2022-09-09T09:46:26;10.90;;;9.90;;
739;SDS011;354;42.694;23.336;2022-09-09T09:48:59;11.00;;;10.10;;
739;SDS011;354;42.694;23.336;2022-09-09T09:51:27;11.73;;;10.75;;
739;SDS011;354;42.694;23.336;2022-09-09T09:54:02;11.68;;;10.68;;
739;SDS011;354;42.694;23.336;2022-09-09T09:56:34;11.25;;;10.35;;
739;SDS011;354;42.694;23.336;2022-09-09T09:59:00;11.35;;;10.35;;
739;SDS011;354;42.694;23.336;2022-09-09T10:01:29;11.85;;;10.63;;
739;SDS011;354;42.694;23.336;2022-09-09T10:06:43;12.00;;;10.85;;
739;SDS011;354;42.694;23.336;2022-09-09T10:11:49;12.10;;;11.07;;
739;SDS011;354;42.694;23.336;2022-09-09T10:14:25;11.82;;;10.80;;
739;SDS011;354;42.694;23.336;2022-09-09T10:22:30;15.52;;;12.45;;
739;SDS011;354;42.694;23.336;2022-09-09T10:25:04;14.50;;;12.27;;
739;SDS011;354;42.694;23.336;2022-09-09T10:27:50;12.75;;;11.45;;
739;SDS011;354;42.694;23.336;2022-09-09T10:36:24;12.77;;;11.50;;
739;SDS011;354;42.694;23.336;2022-09-09T10:47:00;13.95;;;11.80;;
739;SDS011;354;42.694;23.336;2022-09-09T10:55:33;13.82;;;12.38;;
739;SDS011;354;42.694;23.336;2022-09-09T10:58:04;13.90;;;12.75;;
739;SDS011;354;42.694;23.336;2022-09-09T11:00:48;14.18;;;12.75;;
739;SDS011;354;42.694;23.336;2022-09-09T11:03:28;14.30;;;12.95;;
739;SDS011;354;42.694;23.336;2022-09-09T11:05:59;13.68;;;12.50;;
739;SDS011;354;42.694;23.336;2022-09-09T11:08:30;14.40;;;12.98;;
739;SDS011;354;42.694;23.336;2022-09-09T11:16:22;13.90;;;12.63;;
739;SDS011;354;42.694;23.336;2022-09-09T11:19:03;15.30;;;13.68;;
739;SDS011;354;42.694;23.336;2022-09-09T11:21:37;15.45;;;13.52;;
739;SDS011;354;42.694;23.336;2022-09-09T11:24:13;14.23;;;12.77;;
739;SDS011;354;42.694;23.336;2022-09-09T11:26:55;25.30;;;21.58;;
739;SDS011;354;42.694;23.336;2022-09-09T11:29:44;15.32;;;13.75;;
739;SDS011;354;42.694;23.336;2022-09-09T11:40:59;15.88;;;14.43;;
739;SDS011;354;42.694;23.336;2022-09-09T11:46:08;20.38;;;17.92;;
739;SDS011;354;42.694;23.336;2022-09-09T11:48:36;13.43;;;12.25;;
739;SDS011;354;42.694;23.336;2022-09-09T11:56:23;17.20;;;12.73;;
739;SDS011;354;42.694;23.336;2022-09-09T11:59:22;13.90;;;12.48;;
739;SDS011;354;42.694;23.336;2022-09-09T12:01:50;15.07;;;13.40;;
739;SDS011;354;42.694;23.336;2022-09-09T12:09:46;14.70;;;13.00;;
739;SDS011;354;42.694;23.336;2022-09-09T12:12:24;16.77;;;15.02;;
739;SDS011;354;42.694;23.336;2022-09-09T12:17:23;16.30;;;13.18;;
739;SDS011;354;42.694;23.336;2022-09-09T12:20:04;17.52;;;14.52;;
739;SDS011;354;42.694;23.336;2022-09-09T12:28:17;15.00;;;13.63;;
739;SDS011;354;42.694;23.336;2022-09-09T12:30:56;13.30;;;12.30;;
739;SDS011;354;42.694;23.336;2022-09-09T12:33:24;14.60;;;13.15;;
739;SDS011;354;42.694;23.336;2022-09-09T12:35:56;13.85;;;12.55;;
739;SDS011;354;42.694;23.336;2022-09-09T12:38:31;14.80;;;13.15;;
739;SDS011;354;42.694;23.336;2022-09-09T12:40:59;17.75;;;13.07;;
739;SDS011;354;42.694;23.336;2022-09-09T12:43:25;15.10;;;13.40;;
739;SDS011;354;42.694;23.336;2022-09-09T12:45:56;13.50;;;12.23;;
739;SDS011;354;42.694;23.336;2022-09-09T12:48:35;14.77;;;13.27;;
739;SDS011;354;42.694;23.336;2022-09-09T12:51:05;17.98;;;14.05;;
739;SDS011;354;42.694;23.336;2022-09-09T12:53:42;15.13;;;13.82;;
739;SDS011;354;42.694;23.336;2022-09-09T12:56:19;25.30;;;22.00;;
739;SDS011;354;42.694;23.336;2022-09-09T12:58:51;14.95;;;13.52;;
739;SDS011;354;42.694;23.336;2022-09-09T13:01:20;16.30;;;14.63;;
739;SDS011;354;42.694;23.336;2022-09-09T13:03:47;15.63;;;14.23;;
739;SDS011;354;42.694;23.336;2022-09-09T13:06:18;20.23;;;16.65;;
739;SDS011;354;42.694;23.336;2022-09-09T13:08:47;15.85;;;13.75;;
739;SDS011;354;42.694;23.336;2022-09-09T13:11:14;15.32;;;13.88;;
739;SDS011;354;42.694;23.336;2022-09-09T13:13:51;15.25;;;13.77;;
739;SDS011;354;42.694;23.336;2022-09-09T13:16:20;14.90;;;13.60;;
739;SDS011;354;42.694;23.336;2022-09-09T13:19:00;14.35;;;12.93;;
739;SDS011;354;42.694;23.336;2022-09-09T13:21:32;14.80;;;13.35;;
739;SDS011;354;42.694;23.336;2022-09-09T13:26:59;16.58;;;14.02;;
739;SDS011;354;42.694;23.336;2022-09-09T13:29:29;16.55;;;14.98;;
739;SDS011;354;42.694;23.336;2022-09-09T13:37:35;18.48;;;15.57;;
739;SDS011;354;42.694;23.336;2022-09-09T13:40:02;15.02;;;13.25;;
739;SDS011;354;42.694;23.336;2022-09-09T13:42:32;16.02;;;14.43;;
739;SDS011;354;42.694;23.336;2022-09-09T13:45:03;17.30;;;13.77;;
739;SDS011;354;42.694;23.336;2022-09-09T13:47:33;18.88;;;17.15;;
739;SDS011;354;42.694;23.336;2022-09-09T13:52:51;14.07;;;12.93;;
739;SDS011;354;42.694;23.336;2022-09-09T13:55:18;13.65;;;12.35;;
739;SDS011;354;42.694;23.336;2022-09-09T13:57:53;23.20;;;21.00;;
739;SDS011;354;42.694;23.336;2022-09-09T14:00:20;14.18;;;12.88;;
739;SDS011;354;42.694;23.336;2022-09-09T14:02:47;14.68;;;13.25;;
739;SDS011;354;42.694;23.336;2022-09-09T14:05:13;14.02;;;12.65;;
739;SDS011;354;42.694;23.336;2022-09-09T14:07:40;13.05;;;11.85;;
739;SDS011;354;42.694;23.336;2022-09-09T14:10:06;14.05;;;12.45;;
739;SDS011;354;42.694;23.336;2022-09-09T14:12:32;15.00;;;13.55;;
739;SDS011;354;42.694;23.336;2022-09-09T14:14:58;15.57;;;14.10;;
739;SDS011;354;42.694;23.336;2022-09-09T14:17:24;16.85;;;15.35;;
739;SDS011;354;42.694;23.336;2022-09-09T14:19:52;16.05;;;14.45;;
739;SDS011;354;42.694;23.336;2022-09-09T14:22:17;16.23;;;14.60;;
739;SDS011;354;42.694;23.336;2022-09-09T14:24:43;16.13;;;14.07;;
739;SDS011;354;42.694;23.336;2022-09-09T14:27:08;14.15;;;12.85;;
739;SDS011;354;42.694;23.336;2022-09-09T14:29:34;14.90;;;13.40;;
739;SDS011;354;42.694;23.336;2022-09-09T14:31:59;14.65;;;13.35;;
739;SDS011;354;42.694;23.336;2022-09-09T14:34:26;14.52;;;12.82;;
739;SDS011;354;42.694;23.336;2022-09-09T14:36:51;15.00;;;12.73;;
739;SDS011;354;42.694;23.336;2022-09-09T14:39:17;15.43;;;13.75;;
739;SDS011;354;42.694;23.336;2022-09-09T14:41:42;17.55;;;13.02;;
739;SDS011;354;42.694;23.336;2022-09-09T14:44:08;15.95;;;14.25;;
739;SDS011;354;42.694;23.336;2022-09-09T14:46:35;17.02;;;13.88;;
739;SDS011;354;42.694;23.336;2022-09-09T14:49:00;15.77;;;14.15;;
739;SDS011;354;42.694;23.336;2022-09-09T14:51:25;17.37;;;15.63;;
739;SDS011;354;42.694;23.336;2022-09-09T14:53:54;18.05;;;13.35;;
739;SDS011;354;42.694;23.336;2022-09-09T14:56:21;13.73;;;12.25;;
739;SDS011;354;42.694;23.336;2022-09-09T14:58:49;13.85;;;12.38;;
739;SDS011;354;42.694;23.336;2022-09-09T15:01:16;15.52;;;12.02;;
739;SDS011;354;42.694;23.336;2022-09-09T15:03:48;14.18;;;11.35;;
739;SDS011;354;42.694;23.336;2022-09-09T15:06:15;16.30;;;12.23;;
739;SDS011;354;42.694;23.336;2022-09-09T15:08:44;15.48;;;13.05;;
739;SDS011;354;42.694;23.336;2022-09-09T15:11:10;14.07;;;12.88;;
739;SDS011;354;42.694;23.336;2022-09-09T15:13:37;17.85;;;15.95;;
739;SDS011;354;42.694;23.336;2022-09-09T15:16:07;16.88;;;13.75;;
739;SDS011;354;42.694;23.336;2022-09-09T15:18:43;14.32;;;12.95;;
739;SDS011;354;42.694;23.336;2022-09-09T15:21:11;15.65;;;13.25;;
739;SDS011;354;42.694;23.336;2022-09-09T15:23:39;16.70;;;12.60;;
739;SDS011;354;42.694;23.336;2022-09-09T15:26:05;15.88;;;13.73;;
739;SDS011;354;42.694;23.336;2022-09-09T15:28:35;15.27;;;13.15;;
739;SDS011;354;42.694;23.336;2022-09-09T15:38:47;16.92;;;14.60;;
739;SDS011;354;42.694;23.336;2022-09-09T15:41:13;19.65;;;14.57;;
739;SDS011;354;42.694;23.336;2022-09-09T15:43:39;16.92;;;14.60;;
739;SDS011;354;42.694;23.336;2022-09-09T15:48:53;16.13;;;14.40;;
739;SDS011;354;42.694;23.336;2022-09-09T15:51:20;20.65;;;13.75;;
739;SDS011;354;42.694;23.336;2022-09-09T15:53:45;16.88;;;13.90;;
739;SDS011;354;42.694;23.336;2022-09-09T15:56:11;17.35;;;14.15;;
739;SDS011;354;42.694;23.336;2022-09-09T15:58:36;14.77;;;13.38;;
739;SDS011;354;42.694;23.336;2022-09-09T16:01:05;14.07;;;12.63;;
739;SDS011;354;42.694;23.336;2022-09-09T16:03:36;18.60;;;13.55;;
739;SDS011;354;42.694;23.336;2022-09-09T16:06:07;15.07;;;13.57;;
739;SDS011;354;42.694;23.336;2022-09-09T16:08:34;17.95;;;15.82;;
739;SDS011;354;42.694;23.336;2022-09-09T16:11:08;17.88;;;15.15;;
739;SDS011;354;42.694;23.336;2022-09-09T16:13:36;17.52;;;14.93;;
739;SDS011;354;42.694;23.336;2022-09-09T16:16:02;17.30;;;15.32;;
739;SDS011;354;42.694;23.336;2022-09-09T16:18:36;21.75;;;17.95;;
739;SDS011;354;42.694;23.336;2022-09-09T16:21:03;19.20;;;16.30;;
739;SDS011;354;42.694;23.336;2022-09-09T16:23:30;19.27;;;15.90;;
739;SDS011;354;42.694;23.336;2022-09-09T16:26:01;19.45;;;16.67;;
739;SDS011;354;42.694;23.336;2022-09-09T16:28:27;25.05;;;18.15;;
739;SDS011;354;42.694;23.336;2022-09-09T16:30:53;26.02;;;19.55;;
739;SDS011;354;42.694;23.336;2022-09-09T16:33:19;25.55;;;19.73;;
739;SDS011;354;42.694;23.336;2022-09-09T16:35:44;32.08;;;20.15;;
739;SDS011;354;42.694;23.336;2022-09-09T16:38:10;43.80;;;33.90;;
739;SDS011;354;42.694;23.336;2022-09-09T16:40:39;31.45;;;26.40;;
739;SDS011;354;42.694;23.336;2022-09-09T16:43:06;30.13;;;23.13;;
739;SDS011;354;42.694;23.336;2022-09-09T16:45:32;31.55;;;25.52;;
739;SDS011;354;42.694;23.336;2022-09-09T16:47:58;24.05;;;19.48;;
739;SDS011;354;42.694;23.336;2022-09-09T16:50:25;22.42;;;18.73;;
739;SDS011;354;42.694;23.336;2022-09-09T16:52:51;25.13;;;18.73;;
739;SDS011;354;42.694;23.336;2022-09-09T16:55:17;22.83;;;18.77;;
739;SDS011;354;42.694;23.336;2022-09-09T16:57:45;23.90;;;17.52;;
739;SDS011;354;42.694;23.336;2022-09-09T17:00:14;27.90;;;19.90;;
739;SDS011;354;42.694;23.336;2022-09-09T17:02:41;24.52;;;18.98;;
739;SDS011;354;42.694;23.336;2022-09-09T17:05:07;29.02;;;20.52;;
739;SDS011;354;42.694;23.336;2022-09-09T17:07:32;32.28;;;22.98;;
739;SDS011;354;42.694;23.336;2022-09-09T17:09:58;23.20;;;20.73;;
739;SDS011;354;42.694;23.336;2022-09-09T17:12:23;24.30;;;19.15;;
739;SDS011;354;42.694;23.336;2022-09-09T17:14:49;27.35;;;21.23;;
739;SDS011;354;42.694;23.336;2022-09-09T17:17:15;24.73;;;20.48;;
739;SDS011;354;42.694;23.336;2022-09-09T17:19:42;30.85;;;24.25;;
739;SDS011;354;42.694;23.336;2022-09-09T17:22:07;34.25;;;25.80;;
739;SDS011;354;42.694;23.336;2022-09-09T17:24:33;26.92;;;24.10;;
739;SDS011;354;42.694;23.336;2022-09-09T17:26:59;19.70;;;17.73;;
739;SDS011;354;42.694;23.336;2022-09-09T17:29:26;50.03;;;34.53;;
739;SDS011;354;42.694;23.336;2022-09-09T17:31:51;25.10;;;21.13;;
739;SDS011;354;42.694;23.336;2022-09-09T17:34:17;31.00;;;25.20;;
739;SDS011;354;42.694;23.336;2022-09-09T17:36:42;33.83;;;26.40;;
739;SDS011;354;42.694;23.336;2022-09-09T17:39:08;30.00;;;24.27;;